Terminal Aerodrome Forecast
Issued by NWS Goodland, KS

Home | Current Version | Previous Version | Text Only | Print | Product List | Glossary On
Versions: 1 2 3 4 5 6 7 8 9 10 11 12 13 14 15 16 17
000
FTUS43 KGLD 312322
TAFGLD
TAF
KGLD 312322Z 0100/0124 05011KT P6SM VCTS SCT060CB BKN100
     FM010400 36008KT P6SM SCT150
     FM011500 04006KT P6SM SKC=

USA.gov is the U.S. government's official web portal to all federal, state and local government web resources and services.